sensor_id;sensor_type;location;lat;lon;timestamp;P1;durP1;ratioP1;P2;durP2;ratioP2
61806;SDS011;47726;52.766;6.606;2023-04-03T00:01:04;3.85;;;2.40;;
61806;SDS011;47726;52.766;6.606;2023-04-03T00:03:30;4.28;;;2.38;;
61806;SDS011;47726;52.766;6.606;2023-04-03T00:05:55;5.22;;;2.22;;
61806;SDS011;47726;52.766;6.606;2023-04-03T00:08:21;4.10;;;2.13;;
61806;SDS011;47726;52.766;6.606;2023-04-03T00:10:47;4.00;;;2.05;;
61806;SDS011;47726;52.766;6.606;2023-04-03T00:13:13;4.95;;;2.28;;
61806;SDS011;47726;52.766;6.606;2023-04-03T00:15:39;6.25;;;2.10;;
61806;SDS011;47726;52.766;6.606;2023-04-03T00:18:06;3.90;;;2.10;;
61806;SDS011;47726;52.766;6.606;2023-04-03T00:20:32;3.38;;;2.35;;
61806;SDS011;47726;52.766;6.606;2023-04-03T00:22:58;3.90;;;2.13;;
61806;SDS011;47726;52.766;6.606;2023-04-03T00:25:25;3.70;;;2.40;;
61806;SDS011;47726;52.766;6.606;2023-04-03T00:27:50;3.88;;;2.40;;
61806;SDS011;47726;52.766;6.606;2023-04-03T00:30:17;3.58;;;2.03;;
61806;SDS011;47726;52.766;6.606;2023-04-03T00:32:45;3.50;;;2.30;;
61806;SDS011;47726;52.766;6.606;2023-04-03T00:35:12;6.22;;;2.40;;
61806;SDS011;47726;52.766;6.606;2023-04-03T00:37:40;3.50;;;2.20;;
61806;SDS011;47726;52.766;6.606;2023-04-03T00:40:07;4.88;;;2.13;;
61806;SDS011;47726;52.766;6.606;2023-04-03T00:42:35;4.15;;;2.20;;
61806;SDS011;47726;52.766;6.606;2023-04-03T00:47:28;5.05;;;2.42;;
61806;SDS011;47726;52.766;6.606;2023-04-03T00:49:55;4.55;;;2.20;;
61806;SDS011;47726;52.766;6.606;2023-04-03T00:52:23;4.65;;;2.35;;
61806;SDS011;47726;52.766;6.606;2023-04-03T00:54:53;7.10;;;2.38;;
61806;SDS011;47726;52.766;6.606;2023-04-03T00:57:21;4.63;;;2.40;;
61806;SDS011;47726;52.766;6.606;2023-04-03T00:59:51;5.78;;;2.20;;
61806;SDS011;47726;52.766;6.606;2023-04-03T01:02:22;6.43;;;2.53;;
61806;SDS011;47726;52.766;6.606;2023-04-03T01:04:48;4.38;;;2.35;;
61806;SDS011;47726;52.766;6.606;2023-04-03T01:07:18;3.25;;;2.20;;
61806;SDS011;47726;52.766;6.606;2023-04-03T01:09:56;5.68;;;2.30;;
61806;SDS011;47726;52.766;6.606;2023-04-03T01:12:24;3.97;;;2.28;;
61806;SDS011;47726;52.766;6.606;2023-04-03T01:14:53;5.03;;;2.55;;
61806;SDS011;47726;52.766;6.606;2023-04-03T01:17:40;5.05;;;2.45;;
61806;SDS011;47726;52.766;6.606;2023-04-03T01:20:20;6.07;;;2.67;;
61806;SDS011;47726;52.766;6.606;2023-04-03T01:23:06;3.95;;;2.28;;
61806;SDS011;47726;52.766;6.606;2023-04-03T01:28:06;5.93;;;2.40;;
61806;SDS011;47726;52.766;6.606;2023-04-03T01:30:34;4.25;;;2.40;;
61806;SDS011;47726;52.766;6.606;2023-04-03T01:33:13;5.05;;;2.30;;
61806;SDS011;47726;52.766;6.606;2023-04-03T01:35:39;3.95;;;2.50;;
61806;SDS011;47726;52.766;6.606;2023-04-03T01:38:05;5.20;;;2.53;;
61806;SDS011;47726;52.766;6.606;2023-04-03T01:40:31;4.63;;;2.40;;
61806;SDS011;47726;52.766;6.606;2023-04-03T01:42:56;6.03;;;2.50;;
61806;SDS011;47726;52.766;6.606;2023-04-03T01:45:22;5.15;;;2.50;;
61806;SDS011;47726;52.766;6.606;2023-04-03T01:47:47;4.60;;;2.42;;
61806;SDS011;47726;52.766;6.606;2023-04-03T01:50:13;5.28;;;2.65;;
61806;SDS011;47726;52.766;6.606;2023-04-03T01:52:38;4.38;;;2.50;;
61806;SDS011;47726;52.766;6.606;2023-04-03T01:55:04;4.18;;;2.42;;
61806;SDS011;47726;52.766;6.606;2023-04-03T01:57:30;4.03;;;2.40;;
61806;SDS011;47726;52.766;6.606;2023-04-03T01:59:56;6.15;;;2.67;;
61806;SDS011;47726;52.766;6.606;2023-04-03T02:02:21;3.60;;;2.55;;
61806;SDS011;47726;52.766;6.606;2023-04-03T02:04:47;5.00;;;2.40;;
61806;SDS011;47726;52.766;6.606;2023-04-03T02:07:12;5.43;;;2.88;;
61806;SDS011;47726;52.766;6.606;2023-04-03T02:09:38;6.03;;;2.70;;
61806;SDS011;47726;52.766;6.606;2023-04-03T02:12:03;6.93;;;2.78;;
61806;SDS011;47726;52.766;6.606;2023-04-03T02:14:29;7.38;;;3.10;;
61806;SDS011;47726;52.766;6.606;2023-04-03T02:16:55;4.53;;;2.80;;
61806;SDS011;47726;52.766;6.606;2023-04-03T02:19:20;6.03;;;2.80;;
61806;SDS011;47726;52.766;6.606;2023-04-03T02:21:46;5.40;;;2.85;;
61806;SDS011;47726;52.766;6.606;2023-04-03T02:24:11;6.20;;;2.92;;
61806;SDS011;47726;52.766;6.606;2023-04-03T02:26:37;6.72;;;2.95;;
61806;SDS011;47726;52.766;6.606;2023-04-03T02:29:02;5.30;;;2.78;;
61806;SDS011;47726;52.766;6.606;2023-04-03T02:31:28;4.75;;;2.80;;
61806;SDS011;47726;52.766;6.606;2023-04-03T02:33:53;7.22;;;2.80;;
61806;SDS011;47726;52.766;6.606;2023-04-03T02:36:19;6.30;;;2.92;;
61806;SDS011;47726;52.766;6.606;2023-04-03T02:38:45;7.55;;;2.80;;
61806;SDS011;47726;52.766;6.606;2023-04-03T02:41:11;4.53;;;2.75;;
61806;SDS011;47726;52.766;6.606;2023-04-03T02:43:37;5.88;;;2.60;;
61806;SDS011;47726;52.766;6.606;2023-04-03T02:46:03;4.78;;;2.67;;
61806;SDS011;47726;52.766;6.606;2023-04-03T02:48:30;7.25;;;2.90;;
61806;SDS011;47726;52.766;6.606;2023-04-03T02:50:55;4.15;;;2.60;;
61806;SDS011;47726;52.766;6.606;2023-04-03T02:53:21;6.63;;;2.70;;
61806;SDS011;47726;52.766;6.606;2023-04-03T02:55:47;6.03;;;2.70;;
61806;SDS011;47726;52.766;6.606;2023-04-03T02:58:12;6.55;;;2.80;;
61806;SDS011;47726;52.766;6.606;2023-04-03T03:00:38;5.65;;;2.95;;
61806;SDS011;47726;52.766;6.606;2023-04-03T03:03:04;4.53;;;2.58;;
61806;SDS011;47726;52.766;6.606;2023-04-03T03:05:30;6.82;;;3.08;;
61806;SDS011;47726;52.766;6.606;2023-04-03T03:07:56;7.47;;;3.20;;
61806;SDS011;47726;52.766;6.606;2023-04-03T03:10:21;5.78;;;2.90;;
61806;SDS011;47726;52.766;6.606;2023-04-03T03:12:48;6.82;;;2.97;;
61806;SDS011;47726;52.766;6.606;2023-04-03T03:15:14;6.80;;;3.00;;
61806;SDS011;47726;52.766;6.606;2023-04-03T03:17:40;7.28;;;3.00;;
61806;SDS011;47726;52.766;6.606;2023-04-03T03:20:06;7.15;;;2.65;;
61806;SDS011;47726;52.766;6.606;2023-04-03T03:22:33;5.15;;;3.13;;
61806;SDS011;47726;52.766;6.606;2023-04-03T03:24:59;5.35;;;2.88;;
61806;SDS011;47726;52.766;6.606;2023-04-03T03:27:25;5.43;;;2.90;;
61806;SDS011;47726;52.766;6.606;2023-04-03T03:29:51;6.00;;;3.22;;
61806;SDS011;47726;52.766;6.606;2023-04-03T03:32:17;6.60;;;2.85;;
61806;SDS011;47726;52.766;6.606;2023-04-03T03:34:42;6.35;;;2.70;;
61806;SDS011;47726;52.766;6.606;2023-04-03T03:37:08;8.93;;;3.22;;
61806;SDS011;47726;52.766;6.606;2023-04-03T03:39:33;8.65;;;3.25;;
61806;SDS011;47726;52.766;6.606;2023-04-03T03:41:59;7.97;;;3.17;;
61806;SDS011;47726;52.766;6.606;2023-04-03T03:44:25;5.65;;;2.67;;
61806;SDS011;47726;52.766;6.606;2023-04-03T03:46:50;8.55;;;3.47;;
61806;SDS011;47726;52.766;6.606;2023-04-03T03:49:16;7.47;;;3.28;;
61806;SDS011;47726;52.766;6.606;2023-04-03T03:51:42;4.93;;;2.90;;
61806;SDS011;47726;52.766;6.606;2023-04-03T03:54:07;7.38;;;3.08;;
61806;SDS011;47726;52.766;6.606;2023-04-03T03:56:33;4.97;;;2.90;;
61806;SDS011;47726;52.766;6.606;2023-04-03T03:58:59;5.97;;;2.70;;
61806;SDS011;47726;52.766;6.606;2023-04-03T04:01:24;4.78;;;2.70;;
61806;SDS011;47726;52.766;6.606;2023-04-03T04:03:50;4.95;;;2.83;;
61806;SDS011;47726;52.766;6.606;2023-04-03T04:06:16;8.18;;;3.00;;
61806;SDS011;47726;52.766;6.606;2023-04-03T04:08:41;6.00;;;3.00;;
61806;SDS011;47726;52.766;6.606;2023-04-03T04:11:08;5.65;;;3.13;;
61806;SDS011;47726;52.766;6.606;2023-04-03T04:13:34;5.05;;;2.80;;
61806;SDS011;47726;52.766;6.606;2023-04-03T04:15:59;7.95;;;2.72;;
61806;SDS011;47726;52.766;6.606;2023-04-03T04:18:25;6.93;;;3.03;;
61806;SDS011;47726;52.766;6.606;2023-04-03T04:20:50;5.35;;;3.13;;
61806;SDS011;47726;52.766;6.606;2023-04-03T04:23:17;7.07;;;3.10;;
61806;SDS011;47726;52.766;6.606;2023-04-03T04:25:49;7.30;;;3.28;;
61806;SDS011;47726;52.766;6.606;2023-04-03T04:28:15;9.30;;;3.00;;
61806;SDS011;47726;52.766;6.606;2023-04-03T04:30:41;7.68;;;3.40;;
61806;SDS011;47726;52.766;6.606;2023-04-03T04:33:07;4.55;;;3.03;;
61806;SDS011;47726;52.766;6.606;2023-04-03T04:35:33;7.82;;;2.90;;
61806;SDS011;47726;52.766;6.606;2023-04-03T04:37:59;8.10;;;3.10;;
61806;SDS011;47726;52.766;6.606;2023-04-03T04:40:25;7.35;;;3.20;;
61806;SDS011;47726;52.766;6.606;2023-04-03T04:42:50;4.93;;;3.05;;
61806;SDS011;47726;52.766;6.606;2023-04-03T04:45:16;8.77;;;3.10;;
61806;SDS011;47726;52.766;6.606;2023-04-03T04:47:42;8.52;;;3.22;;
61806;SDS011;47726;52.766;6.606;2023-04-03T04:50:07;5.28;;;3.13;;
61806;SDS011;47726;52.766;6.606;2023-04-03T04:52:33;7.00;;;3.20;;
61806;SDS011;47726;52.766;6.606;2023-04-03T04:54:59;7.47;;;3.17;;
61806;SDS011;47726;52.766;6.606;2023-04-03T04:57:25;4.95;;;3.22;;
61806;SDS011;47726;52.766;6.606;2023-04-03T04:59:51;8.57;;;3.33;;
61806;SDS011;47726;52.766;6.606;2023-04-03T05:02:16;6.07;;;3.03;;
61806;SDS011;47726;52.766;6.606;2023-04-03T05:04:42;7.85;;;3.33;;
61806;SDS011;47726;52.766;6.606;2023-04-03T05:07:07;7.40;;;3.22;;
61806;SDS011;47726;52.766;6.606;2023-04-03T05:09:33;6.82;;;3.28;;
61806;SDS011;47726;52.766;6.606;2023-04-03T05:11:59;7.00;;;3.53;;
61806;SDS011;47726;52.766;6.606;2023-04-03T05:14:25;6.80;;;3.00;;
61806;SDS011;47726;52.766;6.606;2023-04-03T05:16:50;6.93;;;3.20;;
61806;SDS011;47726;52.766;6.606;2023-04-03T05:19:19;7.57;;;3.17;;
61806;SDS011;47726;52.766;6.606;2023-04-03T05:21:46;6.18;;;3.50;;
61806;SDS011;47726;52.766;6.606;2023-04-03T05:24:12;7.53;;;3.00;;
61806;SDS011;47726;52.766;6.606;2023-04-03T05:26:38;7.63;;;3.17;;
61806;SDS011;47726;52.766;6.606;2023-04-03T05:29:04;6.72;;;3.30;;
61806;SDS011;47726;52.766;6.606;2023-04-03T05:31:30;6.88;;;3.10;;
61806;SDS011;47726;52.766;6.606;2023-04-03T05:33:55;8.45;;;3.35;;
61806;SDS011;47726;52.766;6.606;2023-04-03T05:36:21;5.85;;;3.30;;
61806;SDS011;47726;52.766;6.606;2023-04-03T05:38:47;8.23;;;3.28;;
61806;SDS011;47726;52.766;6.606;2023-04-03T05:41:13;8.32;;;3.22;;
61806;SDS011;47726;52.766;6.606;2023-04-03T05:43:40;6.30;;;3.20;;
61806;SDS011;47726;52.766;6.606;2023-04-03T05:46:13;6.65;;;3.17;;
61806;SDS011;47726;52.766;6.606;2023-04-03T05:48:40;7.55;;;3.30;;
61806;SDS011;47726;52.766;6.606;2023-04-03T05:51:07;8.18;;;3.10;;
61806;SDS011;47726;52.766;6.606;2023-04-03T05:53:38;8.57;;;3.60;;
61806;SDS011;47726;52.766;6.606;2023-04-03T05:56:04;6.90;;;3.65;;
61806;SDS011;47726;52.766;6.606;2023-04-03T05:58:29;9.95;;;3.67;;
61806;SDS011;47726;52.766;6.606;2023-04-03T06:00:55;7.53;;;3.85;;
61806;SDS011;47726;52.766;6.606;2023-04-03T06:03:21;6.90;;;3.58;;
61806;SDS011;47726;52.766;6.606;2023-04-03T06:05:47;9.68;;;3.65;;
61806;SDS011;47726;52.766;6.606;2023-04-03T06:08:13;7.60;;;3.33;;
61806;SDS011;47726;52.766;6.606;2023-04-03T06:10:39;10.38;;;4.13;;
61806;SDS011;47726;52.766;6.606;2023-04-03T06:13:05;9.85;;;5.03;;
61806;SDS011;47726;52.766;6.606;2023-04-03T06:15:31;15.23;;;4.20;;
61806;SDS011;47726;52.766;6.606;2023-04-03T06:17:56;11.25;;;4.30;;
61806;SDS011;47726;52.766;6.606;2023-04-03T06:20:22;9.68;;;3.47;;
61806;SDS011;47726;52.766;6.606;2023-04-03T06:22:48;7.47;;;3.53;;
61806;SDS011;47726;52.766;6.606;2023-04-03T06:25:13;6.82;;;3.20;;
61806;SDS011;47726;52.766;6.606;2023-04-03T06:27:39;7.90;;;3.55;;
61806;SDS011;47726;52.766;6.606;2023-04-03T06:30:06;9.90;;;3.10;;
61806;SDS011;47726;52.766;6.606;2023-04-03T06:32:32;6.97;;;3.38;;
61806;SDS011;47726;52.766;6.606;2023-04-03T06:34:57;7.47;;;3.03;;
61806;SDS011;47726;52.766;6.606;2023-04-03T06:37:23;6.35;;;3.00;;
61806;SDS011;47726;52.766;6.606;2023-04-03T06:39:51;6.65;;;2.92;;
61806;SDS011;47726;52.766;6.606;2023-04-03T06:42:17;6.80;;;3.10;;
61806;SDS011;47726;52.766;6.606;2023-04-03T06:44:42;8.38;;;3.20;;
61806;SDS011;47726;52.766;6.606;2023-04-03T06:47:10;8.63;;;3.03;;
61806;SDS011;47726;52.766;6.606;2023-04-03T06:49:37;8.75;;;3.25;;
61806;SDS011;47726;52.766;6.606;2023-04-03T06:52:03;6.95;;;3.10;;
61806;SDS011;47726;52.766;6.606;2023-04-03T06:54:29;8.27;;;3.30;;
61806;SDS011;47726;52.766;6.606;2023-04-03T06:56:55;9.18;;;3.58;;
61806;SDS011;47726;52.766;6.606;2023-04-03T06:59:20;6.75;;;3.03;;
61806;SDS011;47726;52.766;6.606;2023-04-03T07:01:46;9.57;;;2.97;;
61806;SDS011;47726;52.766;6.606;2023-04-03T07:04:12;5.63;;;2.90;;
61806;SDS011;47726;52.766;6.606;2023-04-03T07:06:37;9.20;;;2.90;;
61806;SDS011;47726;52.766;6.606;2023-04-03T07:09:03;7.82;;;2.90;;
61806;SDS011;47726;52.766;6.606;2023-04-03T07:11:29;7.25;;;3.08;;
61806;SDS011;47726;52.766;6.606;2023-04-03T07:13:54;7.25;;;2.88;;
61806;SDS011;47726;52.766;6.606;2023-04-03T07:16:21;6.25;;;2.80;;
61806;SDS011;47726;52.766;6.606;2023-04-03T07:18:47;9.15;;;2.75;;
61806;SDS011;47726;52.766;6.606;2023-04-03T07:21:13;6.13;;;2.58;;
61806;SDS011;47726;52.766;6.606;2023-04-03T07:23:38;10.15;;;2.83;;
61806;SDS011;47726;52.766;6.606;2023-04-03T07:26:04;7.32;;;2.80;;
61806;SDS011;47726;52.766;6.606;2023-04-03T07:28:31;6.28;;;2.58;;
61806;SDS011;47726;52.766;6.606;2023-04-03T07:31:01;7.63;;;2.70;;
61806;SDS011;47726;52.766;6.606;2023-04-03T07:33:29;6.63;;;2.45;;
61806;SDS011;47726;52.766;6.606;2023-04-03T07:35:56;6.68;;;2.35;;
61806;SDS011;47726;52.766;6.606;2023-04-03T07:38:21;5.03;;;2.50;;
61806;SDS011;47726;52.766;6.606;2023-04-03T07:40:48;4.38;;;2.33;;
61806;SDS011;47726;52.766;6.606;2023-04-03T07:43:18;4.05;;;2.30;;
61806;SDS011;47726;52.766;6.606;2023-04-03T07:45:45;5.40;;;2.30;;
61806;SDS011;47726;52.766;6.606;2023-04-03T07:48:14;4.97;;;2.40;;
61806;SDS011;47726;52.766;6.606;2023-04-03T07:50:40;6.25;;;2.40;;
61806;SDS011;47726;52.766;6.606;2023-04-03T07:53:06;7.45;;;2.50;;
61806;SDS011;47726;52.766;6.606;2023-04-03T07:55:32;6.38;;;2.40;;
61806;SDS011;47726;52.766;6.606;2023-04-03T07:57:58;8.10;;;2.38;;
61806;SDS011;47726;52.766;6.606;2023-04-03T08:00:24;7.53;;;2.63;;
61806;SDS011;47726;52.766;6.606;2023-04-03T08:02:50;6.10;;;2.20;;
61806;SDS011;47726;52.766;6.606;2023-04-03T08:05:19;7.78;;;2.60;;
61806;SDS011;47726;52.766;6.606;2023-04-03T08:07:46;9.63;;;2.95;;
61806;SDS011;47726;52.766;6.606;2023-04-03T08:10:12;6.05;;;2.30;;
61806;SDS011;47726;52.766;6.606;2023-04-03T08:12:39;5.22;;;2.03;;
61806;SDS011;47726;52.766;6.606;2023-04-03T08:15:05;4.25;;;2.20;;
61806;SDS011;47726;52.766;6.606;2023-04-03T08:17:32;5.93;;;2.30;;
61806;SDS011;47726;52.766;6.606;2023-04-03T08:19:57;7.68;;;2.30;;
61806;SDS011;47726;52.766;6.606;2023-04-03T08:22:23;5.88;;;2.17;;
61806;SDS011;47726;52.766;6.606;2023-04-03T08:24:49;4.72;;;1.90;;
61806;SDS011;47726;52.766;6.606;2023-04-03T08:27:15;4.65;;;2.00;;
61806;SDS011;47726;52.766;6.606;2023-04-03T08:29:40;5.75;;;2.13;;
61806;SDS011;47726;52.766;6.606;2023-04-03T08:32:06;7.05;;;2.10;;
61806;SDS011;47726;52.766;6.606;2023-04-03T08:34:32;5.30;;;2.10;;
61806;SDS011;47726;52.766;6.606;2023-04-03T08:37:02;5.55;;;2.10;;
61806;SDS011;47726;52.766;6.606;2023-04-03T08:39:27;5.07;;;2.00;;
61806;SDS011;47726;52.766;6.606;2023-04-03T08:41:53;4.57;;;2.00;;
61806;SDS011;47726;52.766;6.606;2023-04-03T08:49:51;4.95;;;1.90;;
61806;SDS011;47726;52.766;6.606;2023-04-03T08:52:41;4.88;;;2.08;;
61806;SDS011;47726;52.766;6.606;2023-04-03T08:57:53;3.85;;;1.95;;
61806;SDS011;47726;52.766;6.606;2023-04-03T09:00:28;4.22;;;1.83;;
61806;SDS011;47726;52.766;6.606;2023-04-03T09:03:00;5.38;;;1.90;;
61806;SDS011;47726;52.766;6.606;2023-04-03T09:05:32;4.95;;;2.00;;
61806;SDS011;47726;52.766;6.606;2023-04-03T09:10:49;6.03;;;1.95;;
61806;SDS011;47726;52.766;6.606;2023-04-03T09:13:39;3.63;;;1.88;;
61806;SDS011;47726;52.766;6.606;2023-04-03T09:16:20;3.92;;;1.80;;
61806;SDS011;47726;52.766;6.606;2023-04-03T09:19:07;6.57;;;1.90;;
61806;SDS011;47726;52.766;6.606;2023-04-03T09:21:35;3.63;;;1.80;;
61806;SDS011;47726;52.766;6.606;2023-04-03T09:24:03;3.40;;;1.60;;
61806;SDS011;47726;52.766;6.606;2023-04-03T09:26:36;5.22;;;1.80;;
61806;SDS011;47726;52.766;6.606;2023-04-03T09:29:10;4.13;;;1.70;;
61806;SDS011;47726;52.766;6.606;2023-04-03T09:31:42;4.28;;;1.80;;
61806;SDS011;47726;52.766;6.606;2023-04-03T09:34:21;4.95;;;1.80;;
61806;SDS011;47726;52.766;6.606;2023-04-03T09:36:53;5.53;;;1.90;;
61806;SDS011;47726;52.766;6.606;2023-04-03T09:39:25;4.53;;;2.03;;
61806;SDS011;47726;52.766;6.606;2023-04-03T09:42:14;3.15;;;1.70;;
61806;SDS011;47726;52.766;6.606;2023-04-03T09:47:28;6.13;;;2.08;;
61806;SDS011;47726;52.766;6.606;2023-04-03T09:52:46;3.78;;;1.70;;
61806;SDS011;47726;52.766;6.606;2023-04-03T09:55:14;2.75;;;1.60;;
61806;SDS011;47726;52.766;6.606;2023-04-03T09:57:40;3.28;;;1.50;;
61806;SDS011;47726;52.766;6.606;2023-04-03T10:00:10;4.32;;;1.80;;
61806;SDS011;47726;52.766;6.606;2023-04-03T10:02:53;1.55;;;1.42;;
61806;SDS011;47726;52.766;6.606;2023-04-03T10:05:54;4.30;;;1.50;;
61806;SDS011;47726;52.766;6.606;2023-04-03T10:10:38;2.83;;;1.42;;
61806;SDS011;47726;52.766;6.606;2023-04-03T10:13:12;2.47;;;1.30;;
61806;SDS011;47726;52.766;6.606;2023-04-03T10:16:25;3.50;;;1.38;;
61806;SDS011;47726;52.766;6.606;2023-04-03T10:18:44;3.15;;;1.70;;
61806;SDS011;47726;52.766;6.606;2023-04-03T10:21:24;4.43;;;1.60;;
61806;SDS011;47726;52.766;6.606;2023-04-03T10:24:10;3.15;;;1.60;;
61806;SDS011;47726;52.766;6.606;2023-04-03T10:26:58;3.00;;;1.60;;
61806;SDS011;47726;52.766;6.606;2023-04-03T10:32:19;3.42;;;1.60;;
61806;SDS011;47726;52.766;6.606;2023-04-03T10:34:48;3.78;;;1.70;;
61806;SDS011;47726;52.766;6.606;2023-04-03T10:45:55;2.03;;;1.45;;
61806;SDS011;47726;52.766;6.606;2023-04-03T10:51:08;3.55;;;1.55;;
61806;SDS011;47726;52.766;6.606;2023-04-03T10:53:52;2.55;;;1.58;;
61806;SDS011;47726;52.766;6.606;2023-04-03T10:56:41;2.92;;;1.45;;
61806;SDS011;47726;52.766;6.606;2023-04-03T10:59:29;3.72;;;1.50;;
61806;SDS011;47726;52.766;6.606;2023-04-03T11:02:03;2.22;;;1.50;;
61806;SDS011;47726;52.766;6.606;2023-04-03T11:04:34;4.07;;;1.67;;
61806;SDS011;47726;52.766;6.606;2023-04-03T11:07:16;2.85;;;1.52;;
61806;SDS011;47726;52.766;6.606;2023-04-03T11:09:46;3.10;;;1.70;;
61806;SDS011;47726;52.766;6.606;2023-04-03T11:12:19;3.55;;;2.10;;
61806;SDS011;47726;52.766;6.606;2023-04-03T11:14:46;3.33;;;2.10;;
61806;SDS011;47726;52.766;6.606;2023-04-03T11:19:59;7.32;;;2.20;;
61806;SDS011;47726;52.766;6.606;2023-04-03T11:25:54;3.50;;;1.60;;
61806;SDS011;47726;52.766;6.606;2023-04-03T11:28:23;4.35;;;1.88;;
61806;SDS011;47726;52.766;6.606;2023-04-03T11:31:00;3.03;;;1.70;;
61806;SDS011;47726;52.766;6.606;2023-04-03T11:36:31;2.53;;;1.70;;
61806;SDS011;47726;52.766;6.606;2023-04-03T11:39:18;5.70;;;1.80;;
61806;SDS011;47726;52.766;6.606;2023-04-03T11:41:48;4.53;;;1.58;;
61806;SDS011;47726;52.766;6.606;2023-04-03T11:44:34;2.97;;;1.80;;
61806;SDS011;47726;52.766;6.606;2023-04-03T11:47:03;1.80;;;1.60;;
61806;SDS011;47726;52.766;6.606;2023-04-03T12:16:02;3.65;;;1.90;;
61806;SDS011;47726;52.766;6.606;2023-04-03T12:21:17;2.60;;;1.70;;
61806;SDS011;47726;52.766;6.606;2023-04-03T12:26:41;4.38;;;1.60;;
61806;SDS011;47726;52.766;6.606;2023-04-03T12:37:40;2.50;;;1.70;;
61806;SDS011;47726;52.766;6.606;2023-04-03T12:48:37;2.95;;;1.70;;
61806;SDS011;47726;52.766;6.606;2023-04-03T12:51:28;3.75;;;1.73;;
61806;SDS011;47726;52.766;6.606;2023-04-03T12:54:01;3.65;;;1.70;;
61806;SDS011;47726;52.766;6.606;2023-04-03T12:56:30;3.35;;;1.90;;
61806;SDS011;47726;52.766;6.606;2023-04-03T12:59:13;3.72;;;1.77;;
61806;SDS011;47726;52.766;6.606;2023-04-03T13:01:38;2.78;;;1.75;;
61806;SDS011;47726;52.766;6.606;2023-04-03T13:04:04;3.92;;;1.80;;
61806;SDS011;47726;52.766;6.606;2023-04-03T13:06:30;5.05;;;1.90;;
61806;SDS011;47726;52.766;6.606;2023-04-03T13:09:24;3.67;;;1.77;;
61806;SDS011;47726;52.766;6.606;2023-04-03T13:12:00;3.65;;;1.90;;
61806;SDS011;47726;52.766;6.606;2023-04-03T13:14:28;4.70;;;1.90;;
61806;SDS011;47726;52.766;6.606;2023-04-03T13:19:35;4.45;;;1.90;;
61806;SDS011;47726;52.766;6.606;2023-04-03T13:22:02;3.75;;;1.90;;
61806;SDS011;47726;52.766;6.606;2023-04-03T13:24:41;4.60;;;2.00;;
61806;SDS011;47726;52.766;6.606;2023-04-03T13:27:09;4.40;;;1.90;;
61806;SDS011;47726;52.766;6.606;2023-04-03T13:29:36;3.90;;;2.08;;
61806;SDS011;47726;52.766;6.606;2023-04-03T13:32:03;3.22;;;1.70;;
61806;SDS011;47726;52.766;6.606;2023-04-03T13:34:38;3.58;;;1.83;;
61806;SDS011;47726;52.766;6.606;2023-04-03T13:37:11;4.18;;;1.80;;
61806;SDS011;47726;52.766;6.606;2023-04-03T13:40:03;4.15;;;1.90;;
61806;SDS011;47726;52.766;6.606;2023-04-03T13:42:37;5.97;;;2.08;;
61806;SDS011;47726;52.766;6.606;2023-04-03T13:45:20;3.30;;;1.80;;
61806;SDS011;47726;52.766;6.606;2023-04-03T13:47:54;3.67;;;1.70;;
61806;SDS011;47726;52.766;6.606;2023-04-03T13:50:55;3.92;;;2.22;;
61806;SDS011;47726;52.766;6.606;2023-04-03T13:53:23;3.70;;;1.80;;
61806;SDS011;47726;52.766;6.606;2023-04-03T13:55:55;2.97;;;1.88;;
61806;SDS011;47726;52.766;6.606;2023-04-03T13:58:30;4.22;;;1.80;;
61806;SDS011;47726;52.766;6.606;2023-04-03T14:01:17;3.95;;;1.88;;
61806;SDS011;47726;52.766;6.606;2023-04-03T14:06:15;3.60;;;1.73;;
61806;SDS011;47726;52.766;6.606;2023-04-03T14:08:42;3.72;;;2.00;;
61806;SDS011;47726;52.766;6.606;2023-04-03T14:11:15;4.70;;;1.98;;
61806;SDS011;47726;52.766;6.606;2023-04-03T14:13:44;3.53;;;1.70;;
61806;SDS011;47726;52.766;6.606;2023-04-03T14:16:15;3.35;;;1.90;;
61806;SDS011;47726;52.766;6.606;2023-04-03T14:18:43;5.50;;;2.22;;
61806;SDS011;47726;52.766;6.606;2023-04-03T14:21:11;6.03;;;2.22;;
61806;SDS011;47726;52.766;6.606;2023-04-03T14:23:38;4.88;;;2.40;;
61806;SDS011;47726;52.766;6.606;2023-04-03T14:26:08;2.35;;;1.83;;
61806;SDS011;47726;52.766;6.606;2023-04-03T14:28:38;4.35;;;2.03;;
61806;SDS011;47726;52.766;6.606;2023-04-03T14:31:05;4.25;;;1.88;;
61806;SDS011;47726;52.766;6.606;2023-04-03T14:33:31;3.70;;;1.95;;
61806;SDS011;47726;52.766;6.606;2023-04-03T14:36:00;4.55;;;2.10;;
61806;SDS011;47726;52.766;6.606;2023-04-03T14:38:28;6.50;;;2.30;;
61806;SDS011;47726;52.766;6.606;2023-04-03T14:40:55;4.28;;;2.20;;
61806;SDS011;47726;52.766;6.606;2023-04-03T14:43:23;4.55;;;2.60;;
61806;SDS011;47726;52.766;6.606;2023-04-03T14:45:49;4.25;;;2.40;;
61806;SDS011;47726;52.766;6.606;2023-04-03T14:48:17;4.55;;;2.28;;
61806;SDS011;47726;52.766;6.606;2023-04-03T14:50:49;4.15;;;2.20;;
61806;SDS011;47726;52.766;6.606;2023-04-03T14:53:15;4.68;;;2.45;;
61806;SDS011;47726;52.766;6.606;2023-04-03T14:55:46;7.80;;;4.68;;
61806;SDS011;47726;52.766;6.606;2023-04-03T14:58:13;6.53;;;3.97;;
61806;SDS011;47726;52.766;6.606;2023-04-03T15:00:40;5.97;;;3.33;;
61806;SDS011;47726;52.766;6.606;2023-04-03T15:03:06;6.18;;;3.40;;
61806;SDS011;47726;52.766;6.606;2023-04-03T15:05:35;6.55;;;3.85;;
61806;SDS011;47726;52.766;6.606;2023-04-03T15:08:02;4.80;;;2.90;;
61806;SDS011;47726;52.766;6.606;2023-04-03T15:10:29;11.45;;;6.00;;
61806;SDS011;47726;52.766;6.606;2023-04-03T15:12:55;8.15;;;3.97;;
61806;SDS011;47726;52.766;6.606;2023-04-03T15:15:22;6.85;;;4.30;;
61806;SDS011;47726;52.766;6.606;2023-04-03T15:17:52;4.13;;;2.65;;
61806;SDS011;47726;52.766;6.606;2023-04-03T15:20:20;4.25;;;2.60;;
61806;SDS011;47726;52.766;6.606;2023-04-03T15:22:48;3.70;;;2.40;;
61806;SDS011;47726;52.766;6.606;2023-04-03T15:25:14;6.35;;;2.25;;
61806;SDS011;47726;52.766;6.606;2023-04-03T15:27:40;5.57;;;2.38;;
61806;SDS011;47726;52.766;6.606;2023-04-03T15:30:11;3.60;;;2.40;;
61806;SDS011;47726;52.766;6.606;2023-04-03T15:32:39;4.57;;;2.40;;
61806;SDS011;47726;52.766;6.606;2023-04-03T15:35:05;6.70;;;2.33;;
61806;SDS011;47726;52.766;6.606;2023-04-03T15:37:31;5.38;;;2.40;;
61806;SDS011;47726;52.766;6.606;2023-04-03T15:39:57;3.97;;;2.13;;
61806;SDS011;47726;52.766;6.606;2023-04-03T15:42:22;4.13;;;2.38;;
61806;SDS011;47726;52.766;6.606;2023-04-03T15:44:48;5.00;;;2.28;;
61806;SDS011;47726;52.766;6.606;2023-04-03T15:47:14;5.00;;;2.20;;
61806;SDS011;47726;52.766;6.606;2023-04-03T15:49:40;3.60;;;2.00;;
61806;SDS011;47726;52.766;6.606;2023-04-03T15:52:05;4.80;;;2.30;;
61806;SDS011;47726;52.766;6.606;2023-04-03T15:54:31;3.95;;;2.10;;
61806;SDS011;47726;52.766;6.606;2023-04-03T15:56:57;3.95;;;2.20;;
61806;SDS011;47726;52.766;6.606;2023-04-03T15:59:22;5.05;;;2.00;;
61806;SDS011;47726;52.766;6.606;2023-04-03T16:01:48;4.25;;;2.00;;
61806;SDS011;47726;52.766;6.606;2023-04-03T16:04:15;4.30;;;2.10;;
61806;SDS011;47726;52.766;6.606;2023-04-03T16:06:41;4.25;;;2.17;;
61806;SDS011;47726;52.766;6.606;2023-04-03T16:09:08;2.88;;;2.10;;
61806;SDS011;47726;52.766;6.606;2023-04-03T16:11:34;4.47;;;2.40;;
61806;SDS011;47726;52.766;6.606;2023-04-03T16:14:05;4.05;;;2.20;;
61806;SDS011;47726;52.766;6.606;2023-04-03T16:16:31;5.03;;;2.20;;
61806;SDS011;47726;52.766;6.606;2023-04-03T16:18:57;5.25;;;2.47;;
61806;SDS011;47726;52.766;6.606;2023-04-03T16:21:23;4.63;;;2.28;;
61806;SDS011;47726;52.766;6.606;2023-04-03T16:23:49;4.57;;;2.17;;
61806;SDS011;47726;52.766;6.606;2023-04-03T16:26:15;4.68;;;2.50;;
61806;SDS011;47726;52.766;6.606;2023-04-03T16:28:42;6.15;;;2.42;;
61806;SDS011;47726;52.766;6.606;2023-04-03T16:31:08;4.43;;;2.10;;
61806;SDS011;47726;52.766;6.606;2023-04-03T16:33:34;3.67;;;1.92;;
61806;SDS011;47726;52.766;6.606;2023-04-03T16:36:00;3.53;;;2.20;;
61806;SDS011;47726;52.766;6.606;2023-04-03T16:38:25;6.03;;;2.20;;